Weather at Tindouf Airport

Public forecast

Using degrees Celsius for public forecast. Weather courtesy of forecast.io.

Current aviation weather report (METAR) for Tindouf Airport

2024/06/22 05:00 (retrieved 37 minutes ago)

DAOF 220500Z 18006KT CAVOK 20/11 Q1012

Closest aviation forecast (TAF) to Tindouf Airport

Forecast is more than 12 hours old.

Closest forecast is Moulay Ali Cherif Airport, 321.7 nm (595.9 km) NE.

2024/06/20 12:00 (retrieved 2 days ago)

TAF GMFK 201100Z 2012/2118 36009KT CAVOK TEMPO 2013/2018 20019G33KT BECMG 2018/2020 36020KT